Impacts METAR Board
IDs:

KTPA - Tampa Intl Arpt, FL, US

Updated at: 2200 UTC 19 Jun 2018
Potential Impact None Slight Moderate High
Time 19/10Z 19/11Z 19/12Z 19/13Z 19/14Z 19/15Z 19/16Z 19/17Z 19/18Z 19/19Z 19/20Z 19/21Z 19/22Z
Temp79 79 80 82 85 86 87 88 90 88 83 80 84
Dewpt71 71 72 72 73 74 75 75 75 74 72 75 73
Altim30.04 30.06 30.06 30.07 30.06 30.05 30.05 30.03 30.00 30.00 30.00 29.98 29.96
VIS10 10 10 10 10 10 10 10 10 10 10 10 10
CIG-- -- -- -- -- -- 55 55 280 47 43 110 95
CoverFEWSCTFEWFEWFEWSCTBKNBKNBKNBKNOVCBKNBKN
FltCatVFRVFRVFRVFRVFRVFRVFRVFRVFRVFRVFRVFRVFR
WX---------------------TSRATS--
WDir1201201201401202302202102202502203400
WSpd4 4 3 3 4 6 6 6 9 7 9 7 5
WGst-- -- -- -- -- -- -- -- -- -- -- -- --
Raw hourly METARs
KTPA 190953Z 12004KT 10SM FEW038 FEW190 26/22 A3004 RMK AO2 SLP172 TCU DSNT W-NW T02610217
KTPA 191053Z 12004KT 10SM FEW030 FEW150 SCT250 26/22 A3006 RMK AO2 SLP177 CB DSNT W-NW T02610217
KTPA 191153Z 12003KT 10SM FEW018 FEW280 27/22 A3006 RMK AO2 SLP179 70007 T02670222 10272 20256 51011
KTPA 191253Z 14003KT 10SM FEW020 FEW280 28/22 A3007 RMK AO2 SLP180 T02780222
KTPA 191353Z 12004KT 10SM FEW025 FEW280 29/23 A3006 RMK AO2 SLP179 CB DSNT NW T02940228
KTPA 191453Z 23006KT 10SM SCT027 SCT280 30/23 A3005 RMK AO2 SLP176 T03000233 58003
KTPA 191553Z 22006KT 10SM SCT040 BKN055 BKN280 31/24 A3005 RMK AO2 SLP173 TCU DSNT SW-W T03060239
KTPA 191653Z 21006KT 10SM SCT035 BKN055 BKN250 31/24 A3003 RMK AO2 SLP170 CB DSNT SW AND W-NW T03110239
KTPA 191753Z 22009KT 10SM SCT040TCU BKN280 32/24 A3000 RMK AO2 LTG DSNT N SLP160 CB DSNT W TCU ALQDS T03220239 10328 20267 58017
KTPA 191853Z 25007KT 10SM BKN047TCU BKN090 31/23 A3000 RMK AO2 LTG DSNT N AND NW SLP157 CB DSNT W-N TCU OHD AND ALQDS T03110233
KTPA 191953Z 22009KT 10SM -TSRA SCT023 OVC043CB 28/22 A3000 RMK AO2 LTG DSNT NW-NE RAB1858E10B18 TSE08B18 SLP159 OCNL LTGCG N AND S TS N AND S MOV S TCU ALQDS P0000 T02830222
KTPA 192053Z 34007KT 10SM TS SCT027CB BKN110 27/24 A2998 RMK AO2 LTG DSNT N AND S AND SW RAE51 SLP150 FRQ LTGCG VC S-SW TS VC S-SW MOV SW CB N TCU S AND W-N P0004 60004 T02670239 58010
KTPA 192153Z VRB05KT 10SM FEW035 BKN095 BKN250 29/23 A2996 RMK AO2 LTG DSNT S TSE36 SLP146 CB DSNT SW TCU N AND S SHRA DSNT SW T02890228



Page loaded:  22:06 UTC  |   03:06 PM Pacific  |   04:06 PM Mountain  |   05:06 PM Central  |   06:06 PM Eastern

 

ADVISORIES

FORECASTS

FORECASTS

OBSERVATIONS

USER TOOLS

ABOUT US